createdAt,value
2022-10-25T00:17:47.271Z,5.40
2022-10-25T00:37:46.707Z,5.30
2022-10-25T00:57:46.695Z,4.30
2022-10-25T01:17:46.085Z,2.90
2022-10-25T01:37:46.172Z,3.30
2022-10-25T01:57:45.896Z,5.40
2022-10-25T02:17:45.225Z,10.40
2022-10-25T02:37:45.299Z,7.80
2022-10-25T02:57:44.690Z,7.00
2022-10-25T03:17:44.632Z,6.90
2022-10-25T03:37:44.535Z,7.30
2022-10-25T03:57:44.092Z,9.90
2022-10-25T04:17:43.658Z,10.70
2022-10-25T04:37:43.279Z,9.50
2022-10-25T04:57:43.008Z,10.90
2022-10-25T05:17:42.732Z,13.50
2022-10-25T05:37:42.460Z,9.00
2022-10-25T05:57:42.188Z,9.10
2022-10-25T06:17:41.961Z,9.50
2022-10-25T06:37:41.629Z,9.10
2022-10-25T06:57:41.415Z,12.60
2022-10-25T07:17:41.114Z,9.20
2022-10-25T07:37:40.884Z,9.10
2022-10-25T07:57:40.533Z,7.80
2022-10-25T08:17:40.281Z,9.10
2022-10-25T08:37:40.021Z,8.10
2022-10-25T08:57:40.725Z,6.60
2022-10-25T09:17:39.421Z,7.70
2022-10-25T09:37:39.190Z,4.90
2022-10-25T09:57:38.875Z,5.00
2022-10-25T10:17:38.598Z,4.70
2022-10-25T10:37:38.312Z,3.80
2022-10-25T10:57:38.087Z,4.70
2022-10-25T11:17:37.796Z,4.40
2022-10-25T11:37:37.472Z,3.50
2022-10-25T11:57:37.180Z,2.60
2022-10-25T12:17:36.909Z,2.90
2022-10-25T12:37:36.613Z,3.30
2022-10-25T12:57:36.332Z,4.20
2022-10-25T13:17:36.041Z,4.10
2022-10-25T13:37:35.752Z,2.50
2022-10-25T13:57:35.470Z,3.70
2022-10-25T14:17:35.186Z,2.70
2022-10-25T14:37:35.047Z,3.60
2022-10-25T14:57:34.616Z,2.50
2022-10-25T15:17:34.342Z,2.80
2022-10-25T15:37:34.074Z,2.80
2022-10-25T15:57:33.795Z,2.90
2022-10-25T16:17:34.514Z,3.20
2022-10-25T16:37:33.239Z,4.80
2022-10-25T16:57:32.965Z,3.00
2022-10-25T17:17:32.726Z,4.20
2022-10-25T17:37:32.402Z,5.30
2022-10-25T17:57:32.179Z,4.10
2022-10-25T18:17:31.846Z,2.90
2022-10-25T18:37:31.572Z,6.00
2022-10-25T18:57:31.281Z,5.40
2022-10-25T19:17:31.038Z,5.70
2022-10-25T19:37:30.804Z,8.50
2022-10-25T19:57:30.526Z,5.90
2022-10-25T20:17:30.172Z,5.50
2022-10-25T20:37:29.893Z,9.50
2022-10-25T20:57:29.658Z,8.20
2022-10-25T21:17:29.357Z,11.30
2022-10-25T21:37:29.093Z,6.30
2022-10-25T21:57:28.831Z,10.40
2022-10-25T22:17:28.655Z,10.10
2022-10-25T22:37:28.290Z,10.00
2022-10-25T22:57:28.023Z,9.40
2022-10-25T23:17:27.756Z,8.00
2022-10-25T23:37:27.492Z,10.30
2022-10-25T23:57:27.212Z,13.30
